sensor_id;sensor_type;location;lat;lon;timestamp;temperature;humidity
75281;HTU21D;63874;47.230;39.620;2024-01-27T00:01:39;3.64;87.75
75281;HTU21D;63874;47.230;39.620;2024-01-27T00:04:04;3.64;87.73
75281;HTU21D;63874;47.230;39.620;2024-01-27T00:06:30;3.62;87.70
75281;HTU21D;63874;47.230;39.620;2024-01-27T00:08:56;3.63;87.70
75281;HTU21D;63874;47.230;39.620;2024-01-27T00:11:22;3.64;87.70
75281;HTU21D;63874;47.230;39.620;2024-01-27T00:13:50;3.63;87.73
75281;HTU21D;63874;47.230;39.620;2024-01-27T00:16:15;3.64;87.73
75281;HTU21D;63874;47.230;39.620;2024-01-27T00:18:41;3.64;87.71
75281;HTU21D;63874;47.230;39.620;2024-01-27T00:21:08;3.65;87.73
75281;HTU21D;63874;47.230;39.620;2024-01-27T00:23:33;3.69;87.73
75281;HTU21D;63874;47.230;39.620;2024-01-27T00:26:02;3.69;87.70
75281;HTU21D;63874;47.230;39.620;2024-01-27T00:28:29;3.69;87.64
75281;HTU21D;63874;47.230;39.620;2024-01-27T00:30:55;3.68;87.62
75281;HTU21D;63874;47.230;39.620;2024-01-27T00:33:21;3.68;87.64
75281;HTU21D;63874;47.230;39.620;2024-01-27T00:35:47;3.67;87.57
75281;HTU21D;63874;47.230;39.620;2024-01-27T00:38:13;3.63;87.50
75281;HTU21D;63874;47.230;39.620;2024-01-27T00:40:38;3.63;87.52
75281;HTU21D;63874;47.230;39.620;2024-01-27T00:43:04;3.60;87.54
75281;HTU21D;63874;47.230;39.620;2024-01-27T00:45:30;3.60;87.52
75281;HTU21D;63874;47.230;39.620;2024-01-27T00:47:57;3.57;87.51
75281;HTU21D;63874;47.230;39.620;2024-01-27T00:50:23;3.55;87.57
75281;HTU21D;63874;47.230;39.620;2024-01-27T00:52:49;3.52;87.57
75281;HTU21D;63874;47.230;39.620;2024-01-27T00:55:16;3.50;87.67
75281;HTU21D;63874;47.230;39.620;2024-01-27T00:57:43;3.50;87.67
75281;HTU21D;63874;47.230;39.620;2024-01-27T01:00:09;3.49;87.64
75281;HTU21D;63874;47.230;39.620;2024-01-27T01:02:36;3.49;87.73
75281;HTU21D;63874;47.230;39.620;2024-01-27T01:05:01;3.50;87.73
75281;HTU21D;63874;47.230;39.620;2024-01-27T01:07:30;3.50;87.76
75281;HTU21D;63874;47.230;39.620;2024-01-27T01:09:56;3.52;87.78
75281;HTU21D;63874;47.230;39.620;2024-01-27T01:12:23;3.54;87.74
75281;HTU21D;63874;47.230;39.620;2024-01-27T01:14:51;3.52;87.70
75281;HTU21D;63874;47.230;39.620;2024-01-27T01:17:18;3.52;87.68
75281;HTU21D;63874;47.230;39.620;2024-01-27T01:19:44;3.50;87.69
75281;HTU21D;63874;47.230;39.620;2024-01-27T01:22:10;3.48;87.70
75281;HTU21D;63874;47.230;39.620;2024-01-27T01:24:36;3.46;87.70
75281;HTU21D;63874;47.230;39.620;2024-01-27T01:27:02;3.45;87.78
75281;HTU21D;63874;47.230;39.620;2024-01-27T01:29:28;3.46;87.80
75281;HTU21D;63874;47.230;39.620;2024-01-27T01:31:54;3.46;87.83
75281;HTU21D;63874;47.230;39.620;2024-01-27T01:34:20;3.47;87.81
75281;HTU21D;63874;47.230;39.620;2024-01-27T01:36:45;3.47;87.83
75281;HTU21D;63874;47.230;39.620;2024-01-27T01:39:13;3.46;87.76
75281;HTU21D;63874;47.230;39.620;2024-01-27T01:41:39;3.44;87.70
75281;HTU21D;63874;47.230;39.620;2024-01-27T01:44:05;3.42;87.76
75281;HTU21D;63874;47.230;39.620;2024-01-27T01:46:31;3.40;87.76
75281;HTU21D;63874;47.230;39.620;2024-01-27T01:48:57;3.39;87.80
75281;HTU21D;63874;47.230;39.620;2024-01-27T01:51:23;3.40;87.85
75281;HTU21D;63874;47.230;39.620;2024-01-27T01:53:50;3.39;87.86
75281;HTU21D;63874;47.230;39.620;2024-01-27T01:56:16;3.39;87.89
75281;HTU21D;63874;47.230;39.620;2024-01-27T01:58:42;3.38;87.84
75281;HTU21D;63874;47.230;39.620;2024-01-27T02:01:09;3.39;87.81
75281;HTU21D;63874;47.230;39.620;2024-01-27T02:03:34;3.39;87.83
75281;HTU21D;63874;47.230;39.620;2024-01-27T02:06:00;3.38;87.80
75281;HTU21D;63874;47.230;39.620;2024-01-27T02:08:26;3.36;87.80
75281;HTU21D;63874;47.230;39.620;2024-01-27T02:10:51;3.36;87.81
75281;HTU21D;63874;47.230;39.620;2024-01-27T02:13:17;3.35;87.83
75281;HTU21D;63874;47.230;39.620;2024-01-27T02:15:47;3.33;87.81
75281;HTU21D;63874;47.230;39.620;2024-01-27T02:18:13;3.32;87.86
75281;HTU21D;63874;47.230;39.620;2024-01-27T02:20:39;3.32;87.83
75281;HTU21D;63874;47.230;39.620;2024-01-27T02:23:06;3.30;87.91
75281;HTU21D;63874;47.230;39.620;2024-01-27T02:25:32;3.31;87.96
75281;HTU21D;63874;47.230;39.620;2024-01-27T02:27:58;3.34;87.98
75281;HTU21D;63874;47.230;39.620;2024-01-27T02:30:24;3.36;87.94
75281;HTU21D;63874;47.230;39.620;2024-01-27T02:32:50;3.38;87.88
75281;HTU21D;63874;47.230;39.620;2024-01-27T02:35:18;3.38;87.80
75281;HTU21D;63874;47.230;39.620;2024-01-27T02:37:45;3.34;87.76
75281;HTU21D;63874;47.230;39.620;2024-01-27T02:40:11;3.35;87.78
75281;HTU21D;63874;47.230;39.620;2024-01-27T02:42:40;3.35;87.80
75281;HTU21D;63874;47.230;39.620;2024-01-27T02:45:08;3.34;87.82
75281;HTU21D;63874;47.230;39.620;2024-01-27T02:47:37;3.34;87.83
75281;HTU21D;63874;47.230;39.620;2024-01-27T02:50:03;3.33;87.84
75281;HTU21D;63874;47.230;39.620;2024-01-27T02:52:32;3.34;87.92
75281;HTU21D;63874;47.230;39.620;2024-01-27T02:54:57;3.34;87.85
75281;HTU21D;63874;47.230;39.620;2024-01-27T02:57:23;3.35;87.86
75281;HTU21D;63874;47.230;39.620;2024-01-27T02:59:50;3.35;87.89
75281;HTU21D;63874;47.230;39.620;2024-01-27T03:02:19;3.39;87.92
75281;HTU21D;63874;47.230;39.620;2024-01-27T03:04:46;3.39;87.81
75281;HTU21D;63874;47.230;39.620;2024-01-27T03:07:12;3.42;87.75
75281;HTU21D;63874;47.230;39.620;2024-01-27T03:09:38;3.46;87.73
75281;HTU21D;63874;47.230;39.620;2024-01-27T03:12:03;3.47;87.56
75281;HTU21D;63874;47.230;39.620;2024-01-27T03:14:29;3.47;87.48
75281;HTU21D;63874;47.230;39.620;2024-01-27T03:16:55;3.44;87.44
75281;HTU21D;63874;47.230;39.620;2024-01-27T03:19:21;3.43;87.42
75281;HTU21D;63874;47.230;39.620;2024-01-27T03:21:50;3.41;87.35
75281;HTU21D;63874;47.230;39.620;2024-01-27T03:24:17;3.43;87.30
75281;HTU21D;63874;47.230;39.620;2024-01-27T03:26:43;3.33;87.18
75281;HTU21D;63874;47.230;39.620;2024-01-27T03:29:08;3.28;87.31
75281;HTU21D;63874;47.230;39.620;2024-01-27T03:31:34;3.26;87.50
75281;HTU21D;63874;47.230;39.620;2024-01-27T03:34:00;3.25;87.61
75281;HTU21D;63874;47.230;39.620;2024-01-27T03:36:26;3.25;87.71
75281;HTU21D;63874;47.230;39.620;2024-01-27T03:38:52;3.24;87.78
75281;HTU21D;63874;47.230;39.620;2024-01-27T03:41:19;3.25;87.83
75281;HTU21D;63874;47.230;39.620;2024-01-27T03:43:45;3.24;87.92
75281;HTU21D;63874;47.230;39.620;2024-01-27T03:46:10;3.27;88.02
75281;HTU21D;63874;47.230;39.620;2024-01-27T03:48:36;3.26;87.96
75281;HTU21D;63874;47.230;39.620;2024-01-27T03:51:02;3.24;87.93
75281;HTU21D;63874;47.230;39.620;2024-01-27T03:53:28;3.23;88.00
75281;HTU21D;63874;47.230;39.620;2024-01-27T03:55:56;3.20;88.07
75281;HTU21D;63874;47.230;39.620;2024-01-27T03:58:29;3.20;88.10
75281;HTU21D;63874;47.230;39.620;2024-01-27T04:00:57;3.19;88.18
75281;HTU21D;63874;47.230;39.620;2024-01-27T04:03:23;3.19;88.24
75281;HTU21D;63874;47.230;39.620;2024-01-27T04:05:49;3.23;88.34
75281;HTU21D;63874;47.230;39.620;2024-01-27T04:08:15;3.26;88.28
75281;HTU21D;63874;47.230;39.620;2024-01-27T04:10:41;3.26;88.17
75281;HTU21D;63874;47.230;39.620;2024-01-27T04:13:07;3.25;87.98
75281;HTU21D;63874;47.230;39.620;2024-01-27T04:15:33;3.23;87.99
75281;HTU21D;63874;47.230;39.620;2024-01-27T04:18:06;3.21;88.06
75281;HTU21D;63874;47.230;39.620;2024-01-27T04:20:33;3.21;88.04
75281;HTU21D;63874;47.230;39.620;2024-01-27T04:23:00;3.21;87.93
75281;HTU21D;63874;47.230;39.620;2024-01-27T04:25:26;3.19;87.88
75281;HTU21D;63874;47.230;39.620;2024-01-27T04:27:52;3.20;87.93
75281;HTU21D;63874;47.230;39.620;2024-01-27T04:30:18;3.24;88.09
75281;HTU21D;63874;47.230;39.620;2024-01-27T04:32:44;3.27;88.05
75281;HTU21D;63874;47.230;39.620;2024-01-27T04:35:10;3.29;87.94
75281;HTU21D;63874;47.230;39.620;2024-01-27T04:37:37;3.30;87.89
75281;HTU21D;63874;47.230;39.620;2024-01-27T04:40:03;3.28;87.88
75281;HTU21D;63874;47.230;39.620;2024-01-27T04:42:29;3.29;87.92
75281;HTU21D;63874;47.230;39.620;2024-01-27T04:44:55;3.29;87.87
75281;HTU21D;63874;47.230;39.620;2024-01-27T04:47:21;3.26;87.83
75281;HTU21D;63874;47.230;39.620;2024-01-27T04:49:46;3.24;87.88
75281;HTU21D;63874;47.230;39.620;2024-01-27T04:52:12;3.23;87.97
75281;HTU21D;63874;47.230;39.620;2024-01-27T04:54:39;3.23;88.05
75281;HTU21D;63874;47.230;39.620;2024-01-27T04:57:05;3.23;88.12
75281;HTU21D;63874;47.230;39.620;2024-01-27T04:59:31;3.25;88.12
75281;HTU21D;63874;47.230;39.620;2024-01-27T05:01:58;3.27;88.18
75281;HTU21D;63874;47.230;39.620;2024-01-27T05:04:24;3.30;88.18
75281;HTU21D;63874;47.230;39.620;2024-01-27T05:06:52;3.34;88.16
75281;HTU21D;63874;47.230;39.620;2024-01-27T05:09:17;3.33;88.08
75281;HTU21D;63874;47.230;39.620;2024-01-27T05:11:44;3.34;88.01
75281;HTU21D;63874;47.230;39.620;2024-01-27T05:14:14;3.35;87.92
75281;HTU21D;63874;47.230;39.620;2024-01-27T05:16:41;3.36;87.80
75281;HTU21D;63874;47.230;39.620;2024-01-27T05:19:07;3.33;87.77
75281;HTU21D;63874;47.230;39.620;2024-01-27T05:21:33;3.32;87.77
75281;HTU21D;63874;47.230;39.620;2024-01-27T05:23:59;3.31;87.79
75281;HTU21D;63874;47.230;39.620;2024-01-27T05:26:24;3.30;87.81
75281;HTU21D;63874;47.230;39.620;2024-01-27T05:28:50;3.31;87.93
75281;HTU21D;63874;47.230;39.620;2024-01-27T05:31:17;3.34;88.04
75281;HTU21D;63874;47.230;39.620;2024-01-27T05:33:43;3.36;88.09
75281;HTU21D;63874;47.230;39.620;2024-01-27T05:36:09;3.40;88.03
75281;HTU21D;63874;47.230;39.620;2024-01-27T05:38:36;3.42;87.93
75281;HTU21D;63874;47.230;39.620;2024-01-27T05:41:02;3.42;87.90
75281;HTU21D;63874;47.230;39.620;2024-01-27T05:43:28;3.41;87.83
75281;HTU21D;63874;47.230;39.620;2024-01-27T05:45:55;3.41;87.82
75281;HTU21D;63874;47.230;39.620;2024-01-27T05:48:21;3.41;87.80
75281;HTU21D;63874;47.230;39.620;2024-01-27T05:50:56;3.39;87.82
75281;HTU21D;63874;47.230;39.620;2024-01-27T05:53:23;3.40;87.91
75281;HTU21D;63874;47.230;39.620;2024-01-27T05:55:49;3.41;87.99
75281;HTU21D;63874;47.230;39.620;2024-01-27T05:58:17;3.43;87.96
75281;HTU21D;63874;47.230;39.620;2024-01-27T06:00:47;3.44;87.96
75281;HTU21D;63874;47.230;39.620;2024-01-27T06:03:13;3.46;88.04
75281;HTU21D;63874;47.230;39.620;2024-01-27T06:05:40;3.49;88.06
75281;HTU21D;63874;47.230;39.620;2024-01-27T06:08:09;3.53;88.06
75281;HTU21D;63874;47.230;39.620;2024-01-27T06:10:35;3.56;87.99
75281;HTU21D;63874;47.230;39.620;2024-01-27T06:13:05;3.54;87.88
75281;HTU21D;63874;47.230;39.620;2024-01-27T06:15:32;3.55;87.85
75281;HTU21D;63874;47.230;39.620;2024-01-27T06:17:58;3.53;87.83
75281;HTU21D;63874;47.230;39.620;2024-01-27T06:20:25;3.48;87.84
75281;HTU21D;63874;47.230;39.620;2024-01-27T06:22:51;3.49;87.90
75281;HTU21D;63874;47.230;39.620;2024-01-27T06:25:20;3.48;87.89
75281;HTU21D;63874;47.230;39.620;2024-01-27T06:27:47;3.46;87.95
75281;HTU21D;63874;47.230;39.620;2024-01-27T06:30:21;3.47;88.05
75281;HTU21D;63874;47.230;39.620;2024-01-27T06:32:47;3.48;88.13
75281;HTU21D;63874;47.230;39.620;2024-01-27T06:35:13;3.49;88.16
75281;HTU21D;63874;47.230;39.620;2024-01-27T06:37:39;3.52;88.23
75281;HTU21D;63874;47.230;39.620;2024-01-27T06:40:05;3.54;88.13
75281;HTU21D;63874;47.230;39.620;2024-01-27T06:42:32;3.52;88.12
75281;HTU21D;63874;47.230;39.620;2024-01-27T06:45:00;3.49;88.15
75281;HTU21D;63874;47.230;39.620;2024-01-27T06:47:26;3.48;88.18
75281;HTU21D;63874;47.230;39.620;2024-01-27T06:49:52;3.47;88.20
75281;HTU21D;63874;47.230;39.620;2024-01-27T06:52:18;3.48;88.23
75281;HTU21D;63874;47.230;39.620;2024-01-27T06:54:44;3.46;88.23
75281;HTU21D;63874;47.230;39.620;2024-01-27T06:57:19;3.46;88.22
75281;HTU21D;63874;47.230;39.620;2024-01-27T06:59:46;3.45;88.28
75281;HTU21D;63874;47.230;39.620;2024-01-27T07:02:14;3.46;88.30
75281;HTU21D;63874;47.230;39.620;2024-01-27T07:04:40;3.48;88.38
75281;HTU21D;63874;47.230;39.620;2024-01-27T07:07:09;3.53;88.35
75281;HTU21D;63874;47.230;39.620;2024-01-27T07:09:35;3.55;88.20
75281;HTU21D;63874;47.230;39.620;2024-01-27T07:12:00;3.58;88.18
75281;HTU21D;63874;47.230;39.620;2024-01-27T07:14:28;3.61;88.18
75281;HTU21D;63874;47.230;39.620;2024-01-27T07:16:54;3.63;88.10
75281;HTU21D;63874;47.230;39.620;2024-01-27T07:19:20;3.65;88.10
75281;HTU21D;63874;47.230;39.620;2024-01-27T07:21:45;3.67;88.06
75281;HTU21D;63874;47.230;39.620;2024-01-27T07:24:14;3.68;88.00
75281;HTU21D;63874;47.230;39.620;2024-01-27T07:26:40;3.67;87.96
75281;HTU21D;63874;47.230;39.620;2024-01-27T07:29:08;3.67;87.94
75281;HTU21D;63874;47.230;39.620;2024-01-27T07:31:34;3.62;87.93
75281;HTU21D;63874;47.230;39.620;2024-01-27T07:34:05;3.62;87.94
75281;HTU21D;63874;47.230;39.620;2024-01-27T07:36:32;3.62;87.99
75281;HTU21D;63874;47.230;39.620;2024-01-27T07:38:58;3.64;88.03
75281;HTU21D;63874;47.230;39.620;2024-01-27T07:41:24;3.67;88.04
75281;HTU21D;63874;47.230;39.620;2024-01-27T07:43:49;3.69;88.06
75281;HTU21D;63874;47.230;39.620;2024-01-27T07:46:15;3.73;87.99
75281;HTU21D;63874;47.230;39.620;2024-01-27T07:48:41;3.76;87.99
75281;HTU21D;63874;47.230;39.620;2024-01-27T07:51:10;3.77;87.93
75281;HTU21D;63874;47.230;39.620;2024-01-27T07:53:41;3.79;87.87
75281;HTU21D;63874;47.230;39.620;2024-01-27T07:56:12;3.83;87.86
75281;HTU21D;63874;47.230;39.620;2024-01-27T07:58:38;3.85;87.74
75281;HTU21D;63874;47.230;39.620;2024-01-27T08:01:05;3.86;87.66
75281;HTU21D;63874;47.230;39.620;2024-01-27T08:03:31;3.86;87.66
75281;HTU21D;63874;47.230;39.620;2024-01-27T08:05:57;3.87;87.61
75281;HTU21D;63874;47.230;39.620;2024-01-27T08:08:23;3.87;87.60
75281;HTU21D;63874;47.230;39.620;2024-01-27T08:10:51;3.89;87.61
75281;HTU21D;63874;47.230;39.620;2024-01-27T08:13:19;3.90;87.70
75281;HTU21D;63874;47.230;39.620;2024-01-27T08:15:47;3.93;87.63
75281;HTU21D;63874;47.230;39.620;2024-01-27T08:18:19;3.92;87.55
75281;HTU21D;63874;47.230;39.620;2024-01-27T08:20:45;3.93;87.56
75281;HTU21D;63874;47.230;39.620;2024-01-27T08:23:11;3.93;87.57
75281;HTU21D;63874;47.230;39.620;2024-01-27T08:25:37;3.97;87.69
75281;HTU21D;63874;47.230;39.620;2024-01-27T08:28:04;3.98;87.63
75281;HTU21D;63874;47.230;39.620;2024-01-27T08:30:30;3.95;87.57
75281;HTU21D;63874;47.230;39.620;2024-01-27T08:32:56;3.94;87.62
75281;HTU21D;63874;47.230;39.620;2024-01-27T08:35:22;3.92;87.64
75281;HTU21D;63874;47.230;39.620;2024-01-27T08:37:48;3.92;87.67
75281;HTU21D;63874;47.230;39.620;2024-01-27T08:40:14;3.89;87.69
75281;HTU21D;63874;47.230;39.620;2024-01-27T08:42:40;3.88;87.80
75281;HTU21D;63874;47.230;39.620;2024-01-27T08:45:06;3.92;87.81
75281;HTU21D;63874;47.230;39.620;2024-01-27T08:47:33;3.94;87.79
75281;HTU21D;63874;47.230;39.620;2024-01-27T08:49:59;3.95;87.59
75281;HTU21D;63874;47.230;39.620;2024-01-27T08:52:25;3.92;87.67
75281;HTU21D;63874;47.230;39.620;2024-01-27T08:54:50;3.94;87.71
75281;HTU21D;63874;47.230;39.620;2024-01-27T08:57:16;3.95;87.71
75281;HTU21D;63874;47.230;39.620;2024-01-27T08:59:42;3.94;87.64
75281;HTU21D;63874;47.230;39.620;2024-01-27T09:02:09;3.91;87.72
75281;HTU21D;63874;47.230;39.620;2024-01-27T09:04:36;3.93;87.80
75281;HTU21D;63874;47.230;39.620;2024-01-27T09:07:02;3.95;87.80
75281;HTU21D;63874;47.230;39.620;2024-01-27T09:09:29;3.97;87.77
75281;HTU21D;63874;47.230;39.620;2024-01-27T09:11:55;4.01;87.80
75281;HTU21D;63874;47.230;39.620;2024-01-27T09:14:20;4.05;87.75
75281;HTU21D;63874;47.230;39.620;2024-01-27T09:16:48;4.10;87.67
75281;HTU21D;63874;47.230;39.620;2024-01-27T09:19:14;4.13;87.47
75281;HTU21D;63874;47.230;39.620;2024-01-27T09:21:39;4.14;87.33
75281;HTU21D;63874;47.230;39.620;2024-01-27T09:24:08;4.15;87.19
75281;HTU21D;63874;47.230;39.620;2024-01-27T09:26:36;4.15;87.19
75281;HTU21D;63874;47.230;39.620;2024-01-27T09:29:02;4.12;87.15
75281;HTU21D;63874;47.230;39.620;2024-01-27T09:31:33;4.13;87.18
75281;HTU21D;63874;47.230;39.620;2024-01-27T09:34:01;4.10;87.18
75281;HTU21D;63874;47.230;39.620;2024-01-27T09:36:32;4.07;87.18
75281;HTU21D;63874;47.230;39.620;2024-01-27T09:38:58;4.04;87.22
75281;HTU21D;63874;47.230;39.620;2024-01-27T09:41:24;4.00;87.28
75281;HTU21D;63874;47.230;39.620;2024-01-27T09:43:54;3.99;87.35
75281;HTU21D;63874;47.230;39.620;2024-01-27T09:46:22;3.97;87.31
75281;HTU21D;63874;47.230;39.620;2024-01-27T09:48:49;3.94;87.37
75281;HTU21D;63874;47.230;39.620;2024-01-27T09:51:15;3.95;87.43
75281;HTU21D;63874;47.230;39.620;2024-01-27T09:53:42;4.00;87.52
75281;HTU21D;63874;47.230;39.620;2024-01-27T09:56:08;4.02;87.35
75281;HTU21D;63874;47.230;39.620;2024-01-27T09:58:34;4.03;87.33
75281;HTU21D;63874;47.230;39.620;2024-01-27T10:01:00;4.04;87.26
75281;HTU21D;63874;47.230;39.620;2024-01-27T10:03:26;4.06;87.26
75281;HTU21D;63874;47.230;39.620;2024-01-27T10:05:53;4.06;87.12
75281;HTU21D;63874;47.230;39.620;2024-01-27T10:08:20;4.04;87.02
75281;HTU21D;63874;47.230;39.620;2024-01-27T10:10:47;4.02;86.97
75281;HTU21D;63874;47.230;39.620;2024-01-27T10:13:18;4.01;87.04
75281;HTU21D;63874;47.230;39.620;2024-01-27T10:15:50;4.04;87.09
75281;HTU21D;63874;47.230;39.620;2024-01-27T10:18:24;4.02;86.99
75281;HTU21D;63874;47.230;39.620;2024-01-27T10:20:50;4.02;87.02
75281;HTU21D;63874;47.230;39.620;2024-01-27T10:23:19;4.02;86.91
75281;HTU21D;63874;47.230;39.620;2024-01-27T10:25:44;4.04;86.96
75281;HTU21D;63874;47.230;39.620;2024-01-27T10:28:10;4.05;87.00
75281;HTU21D;63874;47.230;39.620;2024-01-27T10:30:39;4.08;87.02
75281;HTU21D;63874;47.230;39.620;2024-01-27T10:33:07;4.07;86.92
75281;HTU21D;63874;47.230;39.620;2024-01-27T10:35:33;4.06;87.07
75281;HTU21D;63874;47.230;39.620;2024-01-27T10:37:59;4.14;87.13
75281;HTU21D;63874;47.230;39.620;2024-01-27T10:40:28;4.19;87.06
75281;HTU21D;63874;47.230;39.620;2024-01-27T10:43:00;4.22;86.94
75281;HTU21D;63874;47.230;39.620;2024-01-27T10:45:32;4.24;87.03
75281;HTU21D;63874;47.230;39.620;2024-01-27T10:48:02;4.30;86.97
75281;HTU21D;63874;47.230;39.620;2024-01-27T10:50:31;4.32;86.77
75281;HTU21D;63874;47.230;39.620;2024-01-27T10:53:04;4.32;86.66
75281;HTU21D;63874;47.230;39.620;2024-01-27T10:55:33;4.33;86.57
75281;HTU21D;63874;47.230;39.620;2024-01-27T10:58:03;4.32;86.40
75281;HTU21D;63874;47.230;39.620;2024-01-27T11:00:32;4.30;86.28
75281;HTU21D;63874;47.230;39.620;2024-01-27T11:02:59;4.26;86.19
75281;HTU21D;63874;47.230;39.620;2024-01-27T11:05:27;4.24;86.12
75281;HTU21D;63874;47.230;39.620;2024-01-27T11:07:55;4.21;86.11
75281;HTU21D;63874;47.230;39.620;2024-01-27T11:10:22;4.21;86.24
75281;HTU21D;63874;47.230;39.620;2024-01-27T11:12:48;4.24;86.26
75281;HTU21D;63874;47.230;39.620;2024-01-27T11:15:14;4.28;86.30
75281;HTU21D;63874;47.230;39.620;2024-01-27T11:17:41;4.31;86.27
75281;HTU21D;63874;47.230;39.620;2024-01-27T11:20:08;4.33;86.22
75281;HTU21D;63874;47.230;39.620;2024-01-27T11:22:34;4.29;86.23
75281;HTU21D;63874;47.230;39.620;2024-01-27T11:25:06;4.28;86.22
75281;HTU21D;63874;47.230;39.620;2024-01-27T11:27:32;4.22;86.16
75281;HTU21D;63874;47.230;39.620;2024-01-27T11:30:01;4.19;86.30
75281;HTU21D;63874;47.230;39.620;2024-01-27T11:32:27;4.20;86.29
75281;HTU21D;63874;47.230;39.620;2024-01-27T11:34:53;4.16;86.20
75281;HTU21D;63874;47.230;39.620;2024-01-27T11:37:20;4.12;86.28
75281;HTU21D;63874;47.230;39.620;2024-01-27T11:39:50;4.08;86.29
75281;HTU21D;63874;47.230;39.620;2024-01-27T11:42:17;4.06;86.29
75281;HTU21D;63874;47.230;39.620;2024-01-27T11:44:43;4.06;86.30
75281;HTU21D;63874;47.230;39.620;2024-01-27T11:47:14;4.09;86.36
75281;HTU21D;63874;47.230;39.620;2024-01-27T11:49:41;4.09;86.24
75281;HTU21D;63874;47.230;39.620;2024-01-27T11:52:07;4.07;86.21
75281;HTU21D;63874;47.230;39.620;2024-01-27T11:54:32;4.04;85.95
75281;HTU21D;63874;47.230;39.620;2024-01-27T11:56:58;3.97;85.94
75281;HTU21D;63874;47.230;39.620;2024-01-27T11:59:24;3.89;86.07
75281;HTU21D;63874;47.230;39.620;2024-01-27T12:01:50;3.85;86.15
75281;HTU21D;63874;47.230;39.620;2024-01-27T12:04:16;3.82;86.27
75281;HTU21D;63874;47.230;39.620;2024-01-27T12:06:43;3.80;86.31
75281;HTU21D;63874;47.230;39.620;2024-01-27T12:09:09;3.77;86.38
75281;HTU21D;63874;47.230;39.620;2024-01-27T12:11:40;3.73;86.26
75281;HTU21D;63874;47.230;39.620;2024-01-27T12:14:06;3.71;86.31
75281;HTU21D;63874;47.230;39.620;2024-01-27T12:16:32;3.71;86.45
75281;HTU21D;63874;47.230;39.620;2024-01-27T12:18:58;3.73;86.52
75281;HTU21D;63874;47.230;39.620;2024-01-27T12:21:25;3.77;86.42
75281;HTU21D;63874;47.230;39.620;2024-01-27T12:23:51;3.79;86.29
75281;HTU21D;63874;47.230;39.620;2024-01-27T12:26:17;3.82;86.25
75281;HTU21D;63874;47.230;39.620;2024-01-27T12:28:45;3.82;86.12
75281;HTU21D;63874;47.230;39.620;2024-01-27T12:31:12;3.82;85.87
75281;HTU21D;63874;47.230;39.620;2024-01-27T12:33:38;3.78;85.58
75281;HTU21D;63874;47.230;39.620;2024-01-27T12:36:07;3.73;85.51
75281;HTU21D;63874;47.230;39.620;2024-01-27T12:38:37;3.70;85.33
75281;HTU21D;63874;47.230;39.620;2024-01-27T12:41:03;3.61;85.33
75281;HTU21D;63874;47.230;39.620;2024-01-27T12:43:30;3.50;85.37
75281;HTU21D;63874;47.230;39.620;2024-01-27T12:45:56;3.43;85.58
75281;HTU21D;63874;47.230;39.620;2024-01-27T12:48:32;3.34;85.64
75281;HTU21D;63874;47.230;39.620;2024-01-27T12:50:58;3.29;85.67
75281;HTU21D;63874;47.230;39.620;2024-01-27T12:53:26;3.23;85.71
75281;HTU21D;63874;47.230;39.620;2024-01-27T12:55:52;3.17;85.90
75281;HTU21D;63874;47.230;39.620;2024-01-27T12:58:18;3.16;85.74
75281;HTU21D;63874;47.230;39.620;2024-01-27T13:00:45;3.10;85.84
75281;HTU21D;63874;47.230;39.620;2024-01-27T13:03:12;3.05;85.96
75281;HTU21D;63874;47.230;39.620;2024-01-27T13:05:50;3.04;85.88
75281;HTU21D;63874;47.230;39.620;2024-01-27T13:08:18;3.02;85.87
75281;HTU21D;63874;47.230;39.620;2024-01-27T13:10:47;2.96;85.71
75281;HTU21D;63874;47.230;39.620;2024-01-27T13:13:13;2.89;85.71
75281;HTU21D;63874;47.230;39.620;2024-01-27T13:15:51;2.82;85.70
75281;HTU21D;63874;47.230;39.620;2024-01-27T13:18:21;2.76;85.80
75281;HTU21D;63874;47.230;39.620;2024-01-27T13:20:47;2.73;85.87
75281;HTU21D;63874;47.230;39.620;2024-01-27T13:23:13;2.72;85.87
75281;HTU21D;63874;47.230;39.620;2024-01-27T13:25:42;2.69;85.80
75281;HTU21D;63874;47.230;39.620;2024-01-27T13:28:15;2.60;85.85
75281;HTU21D;63874;47.230;39.620;2024-01-27T13:30:41;2.58;85.89
75281;HTU21D;63874;47.230;39.620;2024-01-27T13:33:07;2.55;85.96
75281;HTU21D;63874;47.230;39.620;2024-01-27T13:35:34;2.51;85.89
75281;HTU21D;63874;47.230;39.620;2024-01-27T13:38:01;2.45;85.83
75281;HTU21D;63874;47.230;39.620;2024-01-27T13:40:27;2.36;85.74
75281;HTU21D;63874;47.230;39.620;2024-01-27T13:42:53;2.27;85.69
75281;HTU21D;63874;47.230;39.620;2024-01-27T13:45:19;2.19;85.86
75281;HTU21D;63874;47.230;39.620;2024-01-27T13:47:47;2.14;86.03
75281;HTU21D;63874;47.230;39.620;2024-01-27T13:50:12;2.10;86.14
75281;HTU21D;63874;47.230;39.620;2024-01-27T13:52:38;2.03;86.15
75281;HTU21D;63874;47.230;39.620;2024-01-27T13:55:11;1.99;86.18
75281;HTU21D;63874;47.230;39.620;2024-01-27T13:57:41;1.97;86.25
75281;HTU21D;63874;47.230;39.620;2024-01-27T14:00:16;1.93;86.33
75281;HTU21D;63874;47.230;39.620;2024-01-27T14:02:50;1.91;86.50
75281;HTU21D;63874;47.230;39.620;2024-01-27T14:05:19;1.86;86.55
75281;HTU21D;63874;47.230;39.620;2024-01-27T14:07:47;1.87;86.62
75281;HTU21D;63874;47.230;39.620;2024-01-27T14:10:26;1.90;86.51
75281;HTU21D;63874;47.230;39.620;2024-01-27T14:12:53;1.85;86.44
75281;HTU21D;63874;47.230;39.620;2024-01-27T14:15:23;1.83;86.51
75281;HTU21D;63874;47.230;39.620;2024-01-27T14:17:53;1.80;86.57
75281;HTU21D;63874;47.230;39.620;2024-01-27T14:20:19;1.79;86.55
75281;HTU21D;63874;47.230;39.620;2024-01-27T14:22:45;1.79;86.59
75281;HTU21D;63874;47.230;39.620;2024-01-27T14:25:11;1.75;86.51
75281;HTU21D;63874;47.230;39.620;2024-01-27T14:27:40;1.71;86.51
75281;HTU21D;63874;47.230;39.620;2024-01-27T14:30:07;1.68;86.54
75281;HTU21D;63874;47.230;39.620;2024-01-27T14:32:36;1.64;86.49
75281;HTU21D;63874;47.230;39.620;2024-01-27T14:35:02;1.60;86.69
75281;HTU21D;63874;47.230;39.620;2024-01-27T14:37:38;1.62;86.73
75281;HTU21D;63874;47.230;39.620;2024-01-27T14:40:04;1.63;86.90
75281;HTU21D;63874;47.230;39.620;2024-01-27T14:42:36;1.57;86.85
75281;HTU21D;63874;47.230;39.620;2024-01-27T14:45:06;1.60;86.65
75281;HTU21D;63874;47.230;39.620;2024-01-27T14:47:37;1.58;86.77
75281;HTU21D;63874;47.230;39.620;2024-01-27T14:50:04;1.60;86.63
75281;HTU21D;63874;47.230;39.620;2024-01-27T14:52:39;1.58;86.48
75281;HTU21D;63874;47.230;39.620;2024-01-27T14:55:18;1.55;86.48
75281;HTU21D;63874;47.230;39.620;2024-01-27T14:57:44;1.54;86.50
75281;HTU21D;63874;47.230;39.620;2024-01-27T15:00:14;1.55;86.39
75281;HTU21D;63874;47.230;39.620;2024-01-27T15:02:48;1.51;86.62
75281;HTU21D;63874;47.230;39.620;2024-01-27T15:05:17;1.54;86.51
75281;HTU21D;63874;47.230;39.620;2024-01-27T15:07:46;1.52;86.43
75281;HTU21D;63874;47.230;39.620;2024-01-27T15:10:14;1.51;86.51
75281;HTU21D;63874;47.230;39.620;2024-01-27T15:12:40;1.54;86.48
75281;HTU21D;63874;47.230;39.620;2024-01-27T15:15:06;1.53;86.45